createdAt,value
2018-06-28T00:04:59.502Z,17.70
2018-06-28T00:07:33.738Z,17.70
2018-06-28T00:10:07.458Z,17.70
2018-06-28T00:12:36.701Z,17.60
2018-06-28T00:15:06.494Z,17.60
2018-06-28T00:17:40.074Z,17.60
2018-06-28T00:20:09.733Z,17.60
2018-06-28T00:22:38.049Z,17.50
2018-06-28T00:25:06.876Z,17.50
2018-06-28T00:27:35.267Z,17.50
2018-06-28T00:30:04.627Z,17.50
2018-06-28T00:32:33.522Z,17.50
2018-06-28T00:35:02.002Z,17.50
2018-06-28T00:37:31.928Z,17.50
2018-06-28T00:40:00.952Z,17.50
2018-06-28T00:42:29.547Z,17.50
2018-06-28T00:44:58.402Z,17.50
2018-06-28T00:47:27.259Z,17.50
2018-06-28T00:50:03.961Z,17.50
2018-06-28T00:55:00.874Z,17.40
2018-06-28T00:57:35.008Z,17.30
2018-06-28T01:00:03.907Z,17.30
2018-06-28T01:05:01.467Z,17.30
2018-06-28T01:07:40.333Z,17.30
2018-06-28T01:10:08.653Z,17.20
2018-06-28T01:12:36.922Z,17.20
2018-06-28T01:15:06.242Z,17.20
2018-06-28T01:17:34.976Z,17.20
2018-06-28T01:20:03.595Z,17.20
2018-06-28T01:22:32.361Z,17.20
2018-06-28T01:25:00.663Z,17.20
2018-06-28T01:27:29.162Z,17.20
2018-06-28T01:29:57.432Z,17.20
2018-06-28T01:32:26.657Z,17.10
2018-06-28T01:34:55.044Z,17.10
2018-06-28T01:39:51.439Z,17.00
2018-06-28T01:47:21.722Z,17.00
2018-06-28T01:49:49.955Z,17.00
2018-06-28T01:52:18.178Z,16.90
2018-06-28T01:54:47.444Z,16.90
2018-06-28T01:57:16.311Z,16.90
2018-06-28T01:59:44.747Z,16.90
2018-06-28T02:02:12.959Z,16.90
2018-06-28T02:04:41.214Z,16.90
2018-06-28T02:07:09.664Z,16.90
2018-06-28T02:09:37.973Z,16.80
2018-06-28T02:12:07.149Z,16.80
2018-06-28T02:14:35.413Z,16.80
2018-06-28T02:17:03.691Z,16.80
2018-06-28T02:19:31.919Z,16.80
2018-06-28T02:22:00.170Z,16.80
2018-06-28T02:24:28.478Z,16.80
2018-06-28T02:26:56.924Z,16.80
2018-06-28T02:29:25.195Z,16.80
2018-06-28T02:31:53.398Z,16.80
2018-06-28T02:34:21.752Z,16.80
2018-06-28T02:36:50.116Z,16.80
2018-06-28T02:39:18.380Z,16.80
2018-06-28T02:41:47.596Z,16.80
2018-06-28T02:44:16.489Z,16.80
2018-06-28T02:46:45.237Z,16.70
2018-06-28T02:49:13.675Z,16.70
2018-06-28T02:51:42.138Z,16.70
2018-06-28T02:54:10.653Z,16.70
2018-06-28T02:56:39.272Z,16.70
2018-06-28T02:59:07.502Z,16.70
2018-06-28T03:01:36.378Z,16.70
2018-06-28T03:06:32.776Z,16.70
2018-06-28T03:09:01.250Z,16.70
2018-06-28T03:11:29.731Z,16.70
2018-06-28T03:13:57.921Z,16.70
2018-06-28T03:16:26.355Z,16.80
2018-06-28T03:18:54.587Z,16.80
2018-06-28T03:21:22.862Z,16.80
2018-06-28T03:23:51.631Z,16.80
2018-06-28T03:26:25.071Z,16.80
2018-06-28T03:28:53.710Z,16.80
2018-06-28T03:31:22.019Z,16.80
2018-06-28T03:33:50.297Z,16.80
2018-06-28T03:36:18.630Z,16.80
2018-06-28T03:38:48.131Z,16.80
2018-06-28T03:41:16.427Z,16.80
2018-06-28T03:43:44.682Z,16.90
2018-06-28T03:46:13.172Z,16.90
2018-06-28T03:48:41.488Z,16.90
2018-06-28T03:51:09.856Z,17.00
2018-06-28T03:53:38.122Z,17.10
2018-06-28T03:56:06.580Z,17.30
2018-06-28T03:58:35.172Z,17.50
2018-06-28T04:01:03.488Z,17.70
2018-06-28T04:03:32.612Z,17.80
2018-06-28T04:06:00.995Z,17.80
2018-06-28T04:08:29.347Z,17.90
2018-06-28T04:10:57.638Z,18.00
2018-06-28T04:13:25.855Z,18.20
2018-06-28T04:15:54.583Z,18.30
2018-06-28T04:18:22.818Z,18.30
2018-06-28T04:20:51.743Z,18.30
2018-06-28T04:23:20.291Z,18.20
2018-06-28T04:25:48.570Z,18.20
2018-06-28T04:28:16.881Z,18.20
2018-06-28T04:30:45.182Z,18.20
2018-06-28T04:33:13.491Z,18.20
2018-06-28T04:35:41.761Z,18.20
2018-06-28T04:38:10.281Z,18.20
2018-06-28T04:40:38.559Z,18.20
2018-06-28T04:43:06.843Z,18.20
2018-06-28T04:45:35.095Z,18.20
2018-06-28T04:48:03.319Z,18.20
2018-06-28T04:50:32.006Z,18.20
2018-06-28T04:53:00.533Z,18.20
2018-06-28T04:55:29.629Z,18.20
2018-06-28T04:57:58.041Z,18.20
2018-06-28T05:00:27.861Z,18.20
2018-06-28T05:02:56.434Z,18.20
2018-06-28T05:05:24.807Z,18.20
2018-06-28T05:07:53.083Z,18.20
2018-06-28T05:10:22.360Z,18.30
2018-06-28T05:12:53.232Z,18.30
2018-06-28T05:15:22.118Z,18.40
2018-06-28T05:17:50.466Z,18.40
2018-06-28T05:20:18.999Z,18.40
2018-06-28T05:22:47.567Z,18.40
2018-06-28T05:25:15.819Z,18.50
2018-06-28T05:27:47.260Z,18.50
2018-06-28T05:30:19.251Z,18.60
2018-06-28T05:32:51.709Z,18.60
2018-06-28T05:35:20.611Z,18.70
2018-06-28T05:37:50.623Z,18.80
2018-06-28T05:40:24.111Z,18.80
2018-06-28T05:42:54.011Z,18.80
2018-06-28T05:45:23.583Z,18.80
2018-06-28T05:47:54.425Z,18.90
2018-06-28T05:50:23.601Z,18.90
2018-06-28T05:52:51.964Z,19.00
2018-06-28T05:55:20.543Z,19.00
2018-06-28T05:57:59.348Z,19.10
2018-06-28T06:00:29.858Z,19.20
2018-06-28T06:02:58.702Z,19.20
2018-06-28T06:05:28.371Z,19.30
2018-06-28T06:07:57.685Z,19.30
2018-06-28T06:10:26.759Z,19.40
2018-06-28T06:12:55.902Z,19.50
2018-06-28T06:15:24.816Z,19.60
2018-06-28T06:17:54.018Z,19.60
2018-06-28T06:20:23.492Z,19.70
2018-06-28T06:22:54.404Z,19.70
2018-06-28T06:25:24.101Z,19.80
2018-06-28T06:27:53.738Z,19.80
2018-06-28T06:30:22.863Z,19.90
2018-06-28T06:32:52.311Z,19.90
2018-06-28T06:35:23.232Z,20.00
2018-06-28T06:37:51.645Z,20.00
2018-06-28T06:40:19.848Z,20.10
2018-06-28T06:42:49.507Z,20.20
2018-06-28T06:45:17.770Z,20.20
2018-06-28T06:47:51.358Z,20.30
2018-06-28T06:50:19.619Z,20.40
2018-06-28T06:52:47.875Z,20.40
2018-06-28T06:55:16.379Z,20.50
2018-06-28T06:57:44.968Z,20.60
2018-06-28T07:00:13.233Z,20.60
2018-06-28T07:02:41.510Z,20.70
2018-06-28T07:05:09.746Z,20.80
2018-06-28T07:07:38.039Z,20.90
2018-06-28T07:10:06.580Z,20.90
2018-06-28T07:12:34.795Z,21.00
2018-06-28T07:15:03.023Z,21.00
2018-06-28T07:17:31.542Z,21.10
2018-06-28T07:19:59.836Z,21.20
2018-06-28T07:22:28.050Z,21.30
2018-06-28T07:24:56.276Z,21.40
2018-06-28T07:29:52.559Z,21.50
2018-06-28T07:32:20.807Z,21.50
2018-06-28T07:34:49.328Z,21.60
2018-06-28T07:37:19.264Z,21.60
2018-06-28T07:39:47.478Z,21.60
2018-06-28T07:44:44.845Z,21.60
2018-06-28T07:47:14.850Z,21.60
2018-06-28T07:49:44.021Z,21.70
2018-06-28T07:52:12.223Z,21.70
2018-06-28T07:54:40.536Z,21.80
2018-06-28T07:59:36.698Z,21.90
2018-06-28T08:02:04.940Z,21.90
2018-06-28T08:04:33.557Z,22.00
2018-06-28T08:07:01.797Z,22.10
2018-06-28T08:09:30.975Z,22.10
2018-06-28T08:11:59.218Z,22.20
2018-06-28T08:14:27.439Z,22.20
2018-06-28T08:16:55.814Z,22.40
2018-06-28T08:19:24.071Z,22.40
2018-06-28T08:21:52.312Z,22.60
2018-06-28T08:24:20.620Z,22.60
2018-06-28T08:26:48.897Z,22.70
2018-06-28T08:29:17.166Z,22.70
2018-06-28T08:31:45.453Z,22.80
2018-06-28T08:34:13.748Z,22.80
2018-06-28T08:36:42.228Z,22.90
2018-06-28T08:39:10.642Z,23.00
2018-06-28T08:41:38.897Z,23.00
2018-06-28T08:44:07.176Z,23.10
2018-06-28T08:46:40.820Z,23.20
2018-06-28T08:49:09.396Z,23.20
2018-06-28T08:51:37.991Z,23.20
2018-06-28T08:54:06.356Z,23.30
2018-06-28T08:56:34.702Z,23.30
2018-06-28T08:59:02.943Z,23.40
2018-06-28T09:01:31.293Z,23.40
2018-06-28T09:04:00.481Z,23.50
2018-06-28T09:06:28.808Z,23.60
2018-06-28T09:11:25.118Z,23.80
2018-06-28T09:13:53.535Z,23.90
2018-06-28T09:18:55.084Z,24.00
2018-06-28T09:21:23.394Z,23.90
2018-06-28T09:23:51.733Z,24.00
2018-06-28T09:26:20.261Z,24.10
2018-06-28T09:28:48.568Z,24.20
2018-06-28T09:31:17.345Z,24.20
2018-06-28T09:33:45.750Z,24.20
2018-06-28T09:36:13.971Z,24.30
2018-06-28T09:38:42.456Z,24.30
2018-06-28T09:41:10.626Z,24.30
2018-06-28T09:46:07.930Z,24.40
2018-06-28T09:48:36.493Z,24.40
2018-06-28T09:51:04.716Z,24.40
2018-06-28T09:53:33.199Z,24.50
2018-06-28T09:56:01.871Z,24.60
2018-06-28T09:58:30.346Z,24.60
2018-06-28T10:00:58.846Z,24.60
2018-06-28T10:03:27.178Z,24.70
2018-06-28T10:05:55.587Z,24.90
2018-06-28T10:08:29.524Z,24.90
2018-06-28T10:10:57.783Z,25.00
2018-06-28T10:13:26.099Z,25.00
2018-06-28T10:15:54.926Z,25.00
2018-06-28T10:18:23.859Z,25.00
2018-06-28T10:20:52.147Z,25.00
2018-06-28T10:23:21.787Z,25.00
2018-06-28T10:25:50.143Z,25.10
2018-06-28T10:28:27.880Z,25.10
2018-06-28T10:30:59.551Z,25.20
2018-06-28T10:33:27.891Z,25.20
2018-06-28T10:35:56.211Z,25.20
2018-06-28T10:38:25.599Z,25.20
2018-06-28T10:40:54.048Z,25.20
2018-06-28T10:43:22.310Z,25.20
2018-06-28T10:45:50.779Z,25.20
2018-06-28T10:48:19.080Z,25.30
2018-06-28T10:50:48.046Z,25.20
2018-06-28T10:55:44.413Z,25.10
2018-06-28T10:58:12.678Z,25.00
2018-06-28T11:00:41.740Z,25.00
2018-06-28T11:03:10.096Z,25.00
2018-06-28T11:05:38.373Z,25.00
2018-06-28T11:08:06.886Z,25.00
2018-06-28T11:10:35.222Z,24.90
2018-06-28T11:13:03.695Z,24.90
2018-06-28T11:15:32.033Z,24.90
2018-06-28T11:18:00.536Z,24.90
2018-06-28T11:20:29.019Z,25.00
2018-06-28T11:22:57.343Z,25.00
2018-06-28T11:25:25.695Z,25.00
2018-06-28T11:27:54.103Z,25.00
2018-06-28T11:30:22.327Z,25.10
2018-06-28T11:32:50.673Z,25.00
2018-06-28T11:35:19.099Z,25.00
2018-06-28T11:37:47.623Z,25.00
2018-06-28T11:40:15.843Z,25.00
2018-06-28T11:42:44.075Z,25.00
2018-06-28T11:45:12.567Z,25.00
2018-06-28T11:47:41.419Z,25.10
2018-06-28T11:50:10.732Z,25.10
2018-06-28T11:52:38.959Z,25.00
2018-06-28T11:55:07.472Z,25.00
2018-06-28T11:57:36.414Z,25.10
2018-06-28T12:00:05.285Z,25.10
2018-06-28T12:02:33.815Z,25.20
2018-06-28T12:05:02.147Z,25.20
2018-06-28T12:07:30.547Z,25.20
2018-06-28T12:09:59.883Z,25.20
2018-06-28T12:12:29.903Z,25.30
2018-06-28T12:14:58.374Z,25.30
2018-06-28T12:17:26.840Z,25.40
2018-06-28T12:19:55.240Z,25.40
2018-06-28T12:22:23.573Z,25.50
2018-06-28T12:24:51.775Z,25.50
2018-06-28T12:27:25.274Z,25.50
2018-06-28T12:29:53.974Z,25.50
2018-06-28T12:32:22.223Z,25.50
2018-06-28T12:39:46.810Z,25.50
2018-06-28T12:42:15.019Z,25.60
2018-06-28T12:44:44.868Z,25.60
2018-06-28T12:47:50.959Z,25.60
2018-06-28T12:50:19.322Z,25.50
2018-06-28T12:53:03.630Z,25.50
2018-06-28T12:56:36.257Z,25.40
2018-06-28T12:59:06.612Z,25.40
2018-06-28T13:01:35.305Z,25.50
2018-06-28T13:04:03.521Z,25.50
2018-06-28T13:06:31.995Z,25.50
2018-06-28T13:09:00.915Z,25.60
2018-06-28T13:11:29.506Z,25.70
2018-06-28T13:13:57.912Z,25.60
2018-06-28T13:16:31.539Z,25.60
2018-06-28T13:18:59.918Z,25.50
2018-06-28T13:21:28.263Z,25.50
2018-06-28T13:23:57.163Z,25.40
2018-06-28T13:26:25.479Z,25.40
2018-06-28T13:28:54.256Z,25.40
2018-06-28T13:31:22.811Z,25.40
2018-06-28T13:33:51.100Z,25.30
2018-06-28T13:36:20.295Z,25.40
2018-06-28T13:38:49.200Z,25.40
2018-06-28T13:41:17.636Z,25.30
2018-06-28T13:43:45.735Z,25.20
2018-06-28T13:46:14.581Z,25.20
2018-06-28T13:48:43.246Z,25.10
2018-06-28T13:51:11.538Z,25.10
2018-06-28T13:53:41.346Z,25.10
2018-06-28T13:56:09.761Z,25.10
2018-06-28T13:58:39.055Z,25.20
2018-06-28T14:01:08.010Z,25.20
2018-06-28T14:03:37.947Z,25.20
2018-06-28T14:06:06.763Z,25.20
2018-06-28T14:11:03.219Z,25.10
2018-06-28T14:13:31.907Z,25.10
2018-06-28T14:16:00.413Z,25.10
2018-06-28T14:18:34.883Z,25.10
2018-06-28T14:21:04.454Z,25.10
2018-06-28T14:23:32.698Z,25.10
2018-06-28T14:26:01.577Z,25.10
2018-06-28T14:30:58.940Z,25.10
2018-06-28T14:33:27.468Z,25.10
2018-06-28T14:35:55.686Z,25.10
2018-06-28T14:38:25.218Z,25.10
2018-06-28T14:43:22.050Z,25.10
2018-06-28T14:45:50.322Z,25.20
2018-06-28T14:48:19.062Z,25.90
2018-06-28T14:50:48.891Z,26.90
2018-06-28T14:53:17.901Z,28.00
2018-06-28T14:55:48.498Z,28.80
2018-06-28T14:58:17.142Z,29.50
2018-06-28T15:00:45.544Z,30.10
2018-06-28T15:05:42.080Z,30.80
2018-06-28T15:08:10.916Z,31.20
2018-06-28T15:10:39.150Z,31.70
2018-06-28T15:13:07.757Z,32.10
2018-06-28T15:15:36.494Z,32.60
2018-06-28T15:18:05.097Z,33.10
2018-06-28T15:20:33.871Z,33.70
2018-06-28T15:23:02.712Z,34.00
2018-06-28T15:25:31.319Z,34.20
2018-06-28T15:28:01.263Z,34.40
2018-06-28T15:30:29.503Z,34.50
2018-06-28T15:32:58.309Z,34.60
2018-06-28T15:35:33.243Z,34.80
2018-06-28T15:38:02.319Z,34.80
2018-06-28T15:40:31.231Z,34.80
2018-06-28T15:43:08.330Z,34.90
2018-06-28T15:45:37.592Z,34.90
2018-06-28T15:48:06.387Z,35.10
2018-06-28T15:50:35.697Z,35.30
2018-06-28T15:53:05.837Z,35.30
2018-06-28T15:55:34.208Z,35.20
2018-06-28T15:58:02.488Z,35.00
2018-06-28T16:00:30.802Z,34.90
2018-06-28T16:02:59.157Z,34.80
2018-06-28T16:05:27.436Z,34.90
2018-06-28T16:07:55.987Z,35.10
2018-06-28T16:10:24.518Z,35.20
2018-06-28T16:12:52.818Z,35.10
2018-06-28T16:15:21.433Z,34.90
2018-06-28T16:17:49.735Z,34.90
2018-06-28T16:20:20.471Z,35.10
2018-06-28T16:22:49.515Z,35.30
2018-06-28T16:25:17.934Z,35.20
2018-06-28T16:27:46.415Z,34.80
2018-06-28T16:30:18.740Z,34.60
2018-06-28T16:32:48.184Z,34.70
2018-06-28T16:35:16.924Z,34.70
2018-06-28T16:37:46.256Z,34.70
2018-06-28T16:40:25.226Z,34.20
2018-06-28T16:42:54.124Z,33.10
2018-06-28T16:47:59.316Z,30.50
2018-06-28T16:50:27.664Z,29.50
2018-06-28T16:52:57.070Z,28.70
2018-06-28T16:55:25.359Z,28.10
2018-06-28T16:57:59.204Z,27.70
2018-06-28T17:00:27.530Z,27.30
2018-06-28T17:02:57.179Z,26.90
2018-06-28T17:08:11.352Z,26.50
2018-06-28T17:13:13.847Z,26.00
2018-06-28T17:15:43.058Z,25.80
2018-06-28T17:18:21.011Z,25.70
2018-06-28T17:20:49.310Z,25.50
2018-06-28T17:23:19.892Z,25.30
2018-06-28T17:25:51.523Z,25.30
2018-06-28T17:28:21.331Z,25.10
2018-06-28T17:30:51.058Z,25.10
2018-06-28T17:33:20.206Z,25.00
2018-06-28T17:35:48.519Z,25.00
2018-06-28T17:38:17.050Z,24.90
2018-06-28T17:40:45.690Z,24.90
2018-06-28T17:43:15.347Z,24.80
2018-06-28T17:45:44.478Z,24.80
2018-06-28T17:48:13.198Z,24.80
2018-06-28T17:50:42.020Z,24.70
2018-06-28T17:53:10.602Z,24.60
2018-06-28T17:55:41.852Z,24.60
2018-06-28T17:58:11.629Z,24.50
2018-06-28T18:00:41.795Z,24.50
2018-06-28T18:03:10.974Z,24.40
2018-06-28T18:08:09.283Z,24.30
2018-06-28T18:10:37.962Z,24.20
2018-06-28T18:13:06.794Z,24.20
2018-06-28T18:15:39.851Z,24.10
2018-06-28T18:18:15.126Z,24.00
2018-06-28T18:20:45.866Z,24.00
2018-06-28T18:23:16.636Z,24.00
2018-06-28T18:25:45.286Z,23.90
2018-06-28T18:28:14.156Z,23.90
2018-06-28T18:30:42.747Z,23.80
2018-06-28T18:33:11.547Z,23.70
2018-06-28T18:35:40.144Z,23.70
2018-06-28T18:38:10.215Z,23.60
2018-06-28T18:40:40.730Z,23.50
2018-06-28T18:43:09.951Z,23.40
2018-06-28T18:45:39.639Z,23.40
2018-06-28T18:48:13.958Z,23.30
2018-06-28T18:50:42.433Z,23.20
2018-06-28T18:53:15.693Z,23.10
2018-06-28T18:55:45.284Z,23.00
2018-06-28T18:58:13.994Z,23.00
2018-06-28T19:00:43.216Z,22.90
2018-06-28T19:03:12.728Z,22.90
2018-06-28T19:05:42.131Z,22.80
2018-06-28T19:08:16.795Z,22.80
2018-06-28T19:10:50.831Z,22.80
2018-06-28T19:13:21.380Z,22.80
2018-06-28T19:15:55.987Z,22.80
2018-06-28T19:18:31.341Z,22.70
2018-06-28T19:23:52.513Z,22.80
2018-06-28T19:26:21.504Z,22.80
2018-06-28T19:28:52.126Z,22.70
2018-06-28T19:31:27.071Z,22.70
2018-06-28T19:33:56.347Z,22.70
2018-06-28T19:36:28.682Z,22.70
2018-06-28T19:39:02.680Z,22.60
2018-06-28T19:41:38.072Z,22.60
2018-06-28T19:44:06.390Z,22.60
2018-06-28T19:46:38.191Z,22.60
2018-06-28T19:49:12.499Z,22.60
2018-06-28T19:52:02.727Z,22.50
2018-06-28T19:54:32.409Z,22.60
2018-06-28T19:57:08.424Z,22.50
2018-06-28T19:59:49.414Z,22.50
2018-06-28T20:02:25.150Z,22.40
2018-06-28T20:10:22.107Z,22.20
2018-06-28T20:12:55.641Z,22.20
2018-06-28T20:15:40.722Z,22.10
2018-06-28T20:18:24.702Z,22.10
2018-06-28T20:20:53.970Z,22.10
2018-06-28T20:23:23.324Z,22.00
2018-06-28T20:25:52.025Z,22.00
2018-06-28T20:28:25.714Z,21.90
2018-06-28T20:31:00.709Z,21.90
2018-06-28T20:33:34.509Z,21.90
2018-06-28T20:36:03.094Z,21.80
2018-06-28T20:38:46.089Z,21.80
2018-06-28T20:41:14.483Z,21.80
2018-06-28T20:43:42.739Z,21.70
2018-06-28T20:46:11.092Z,21.70
2018-06-28T20:48:39.642Z,21.70
2018-06-28T20:51:08.149Z,21.70
2018-06-28T20:53:36.384Z,21.70
2018-06-28T20:56:06.092Z,21.60
2018-06-28T20:58:42.115Z,21.60
2018-06-28T21:01:10.564Z,21.50
2018-06-28T21:03:39.741Z,21.40
2018-06-28T21:06:09.063Z,21.30
2018-06-28T21:08:37.566Z,21.20
2018-06-28T21:11:07.638Z,21.10
2018-06-28T21:13:36.380Z,21.00
2018-06-28T21:16:05.570Z,20.90
2018-06-28T21:18:34.147Z,20.80
2018-06-28T21:21:03.516Z,20.80
2018-06-28T21:23:33.172Z,20.70
2018-06-28T21:26:02.752Z,20.70
2018-06-28T21:28:32.271Z,20.60
2018-06-28T21:31:00.736Z,20.60
2018-06-28T21:33:30.062Z,20.60
2018-06-28T21:35:58.357Z,20.50
2018-06-28T21:38:26.696Z,20.50
2018-06-28T21:40:55.748Z,20.50
2018-06-28T21:43:23.987Z,20.50
2018-06-28T21:45:52.284Z,20.40
2018-06-28T21:48:21.489Z,20.40
2018-06-28T21:50:49.773Z,20.40
2018-06-28T21:53:17.994Z,20.40
2018-06-28T21:55:46.319Z,20.30
2018-06-28T21:58:15.564Z,20.30
2018-06-28T22:00:44.308Z,20.30
2018-06-28T22:03:13.543Z,20.20
2018-06-28T22:05:43.026Z,20.20
2018-06-28T22:08:11.291Z,20.20
2018-06-28T22:10:39.589Z,20.20
2018-06-28T22:13:08.342Z,20.20
2018-06-28T22:15:36.911Z,20.10
2018-06-28T22:18:05.333Z,20.10
2018-06-28T22:20:35.830Z,20.10
2018-06-28T22:23:05.495Z,20.10
2018-06-28T22:25:33.978Z,20.10
2018-06-28T22:28:02.527Z,20.10
2018-06-28T22:30:31.172Z,20.10
2018-06-28T22:33:02.363Z,20.10
2018-06-28T22:35:31.408Z,20.10
2018-06-28T22:38:03.664Z,20.10
2018-06-28T22:43:16.984Z,20.00
2018-06-28T22:45:51.058Z,20.10
2018-06-28T22:48:19.681Z,20.00
2018-06-28T22:50:48.222Z,20.10
2018-06-28T22:53:17.470Z,20.10
2018-06-28T22:58:16.321Z,20.00
2018-06-28T23:00:45.657Z,20.00
2018-06-28T23:03:15.102Z,20.00
2018-06-28T23:05:45.357Z,20.00
2018-06-28T23:08:15.942Z,20.00
2018-06-28T23:10:44.884Z,20.00
2018-06-28T23:13:14.190Z,20.00
2018-06-28T23:15:44.095Z,20.00
2018-06-28T23:18:13.319Z,20.00
2018-06-28T23:20:41.584Z,20.00
2018-06-28T23:23:09.883Z,20.00
2018-06-28T23:25:42.669Z,19.90
2018-06-28T23:28:13.540Z,19.90
2018-06-28T23:30:42.594Z,19.80
2018-06-28T23:33:12.555Z,19.80
2018-06-28T23:35:43.315Z,19.80
2018-06-28T23:38:17.457Z,19.80
2018-06-28T23:40:47.489Z,19.80
2018-06-28T23:43:15.832Z,19.80
2018-06-28T23:48:41.963Z,19.70
2018-06-28T23:51:12.018Z,19.70
2018-06-28T23:53:42.400Z,19.70
2018-06-28T23:56:12.009Z,19.60
2018-06-28T23:58:51.689Z,19.60
